sensor_id;sensor_type;location;lat;lon;timestamp;temperature;humidity
14670;DHT22;7423;48.722;9.350;2023-03-14T00:01:32;12.20;99.90
14670;DHT22;7423;48.722;9.350;2023-03-14T00:03:58;12.10;99.90
14670;DHT22;7423;48.722;9.350;2023-03-14T00:06:26;12.30;99.90
14670;DHT22;7423;48.722;9.350;2023-03-14T00:08:53;12.40;99.90
14670;DHT22;7423;48.722;9.350;2023-03-14T00:11:21;12.50;99.90
14670;DHT22;7423;48.722;9.350;2023-03-14T00:13:52;12.60;99.90
14670;DHT22;7423;48.722;9.350;2023-03-14T00:16:19;12.80;99.90
14670;DHT22;7423;48.722;9.350;2023-03-14T00:18:47;12.80;99.90
14670;DHT22;7423;48.722;9.350;2023-03-14T00:21:14;13.00;99.90
14670;DHT22;7423;48.722;9.350;2023-03-14T00:23:42;13.10;99.90
14670;DHT22;7423;48.722;9.350;2023-03-14T00:26:14;13.00;99.90
14670;DHT22;7423;48.722;9.350;2023-03-14T00:28:43;13.10;99.90
14670;DHT22;7423;48.722;9.350;2023-03-14T00:31:13;13.20;99.90
14670;DHT22;7423;48.722;9.350;2023-03-14T00:33:42;13.20;99.90
14670;DHT22;7423;48.722;9.350;2023-03-14T00:36:13;13.30;99.90
14670;DHT22;7423;48.722;9.350;2023-03-14T00:38:43;13.40;99.90
14670;DHT22;7423;48.722;9.350;2023-03-14T00:41:13;13.40;99.90
14670;DHT22;7423;48.722;9.350;2023-03-14T00:43:42;13.40;99.90
14670;DHT22;7423;48.722;9.350;2023-03-14T00:46:09;13.40;99.90
14670;DHT22;7423;48.722;9.350;2023-03-14T00:48:37;13.40;99.90
14670;DHT22;7423;48.722;9.350;2023-03-14T00:51:05;13.50;99.90
14670;DHT22;7423;48.722;9.350;2023-03-14T00:53:37;13.50;99.90
14670;DHT22;7423;48.722;9.350;2023-03-14T00:56:07;13.50;99.90
14670;DHT22;7423;48.722;9.350;2023-03-14T00:58:35;13.50;99.90
14670;DHT22;7423;48.722;9.350;2023-03-14T01:01:07;13.50;99.90
14670;DHT22;7423;48.722;9.350;2023-03-14T01:03:36;13.50;99.90
14670;DHT22;7423;48.722;9.350;2023-03-14T01:06:12;13.40;99.90
14670;DHT22;7423;48.722;9.350;2023-03-14T01:08:44;13.40;99.90
14670;DHT22;7423;48.722;9.350;2023-03-14T01:11:14;13.40;99.90
14670;DHT22;7423;48.722;9.350;2023-03-14T01:13:43;13.40;99.90
14670;DHT22;7423;48.722;9.350;2023-03-14T01:16:13;13.40;99.90
14670;DHT22;7423;48.722;9.350;2023-03-14T01:18:42;13.40;99.90
14670;DHT22;7423;48.722;9.350;2023-03-14T01:21:17;13.40;99.90
14670;DHT22;7423;48.722;9.350;2023-03-14T01:23:47;13.40;99.90
14670;DHT22;7423;48.722;9.350;2023-03-14T01:26:16;13.40;99.90
14670;DHT22;7423;48.722;9.350;2023-03-14T01:28:47;13.40;99.90
14670;DHT22;7423;48.722;9.350;2023-03-14T01:31:14;13.40;99.90
14670;DHT22;7423;48.722;9.350;2023-03-14T01:33:41;13.40;99.90
14670;DHT22;7423;48.722;9.350;2023-03-14T01:36:09;13.40;99.90
14670;DHT22;7423;48.722;9.350;2023-03-14T01:38:37;13.40;99.90
14670;DHT22;7423;48.722;9.350;2023-03-14T01:41:07;13.30;99.90
14670;DHT22;7423;48.722;9.350;2023-03-14T01:43:34;13.30;99.90
14670;DHT22;7423;48.722;9.350;2023-03-14T01:48:53;13.20;99.90
14670;DHT22;7423;48.722;9.350;2023-03-14T01:56:57;13.30;99.90
14670;DHT22;7423;48.722;9.350;2023-03-14T01:59:37;13.30;99.90
14670;DHT22;7423;48.722;9.350;2023-03-14T02:02:07;13.20;99.90
14670;DHT22;7423;48.722;9.350;2023-03-14T02:04:36;13.00;99.90
14670;DHT22;7423;48.722;9.350;2023-03-14T02:09:42;13.20;99.90
14670;DHT22;7423;48.722;9.350;2023-03-14T02:12:11;13.10;99.90
14670;DHT22;7423;48.722;9.350;2023-03-14T02:14:40;13.00;99.90
14670;DHT22;7423;48.722;9.350;2023-03-14T02:17:14;12.80;99.90
14670;DHT22;7423;48.722;9.350;2023-03-14T02:19:58;12.60;99.90
14670;DHT22;7423;48.722;9.350;2023-03-14T02:22:28;12.70;99.90
14670;DHT22;7423;48.722;9.350;2023-03-14T02:27:38;12.80;99.90
14670;DHT22;7423;48.722;9.350;2023-03-14T02:30:12;12.80;99.90
14670;DHT22;7423;48.722;9.350;2023-03-14T02:32:43;13.00;99.90
14670;DHT22;7423;48.722;9.350;2023-03-14T02:35:17;12.80;99.90
14670;DHT22;7423;48.722;9.350;2023-03-14T02:37:55;12.90;99.90
14670;DHT22;7423;48.722;9.350;2023-03-14T02:40:24;12.80;99.90
14670;DHT22;7423;48.722;9.350;2023-03-14T02:42:51;13.00;99.90
14670;DHT22;7423;48.722;9.350;2023-03-14T02:48:13;13.10;99.90
14670;DHT22;7423;48.722;9.350;2023-03-14T02:50:43;13.20;99.90
14670;DHT22;7423;48.722;9.350;2023-03-14T02:53:13;13.10;99.90
14670;DHT22;7423;48.722;9.350;2023-03-14T02:55:47;13.10;99.90
14670;DHT22;7423;48.722;9.350;2023-03-14T02:58:15;13.20;99.90
14670;DHT22;7423;48.722;9.350;2023-03-14T03:00:42;12.90;99.90
14670;DHT22;7423;48.722;9.350;2023-03-14T03:03:09;12.80;99.90
14670;DHT22;7423;48.722;9.350;2023-03-14T03:05:36;12.70;99.90
14670;DHT22;7423;48.722;9.350;2023-03-14T03:08:04;12.70;99.90
14670;DHT22;7423;48.722;9.350;2023-03-14T03:10:31;12.80;99.90
14670;DHT22;7423;48.722;9.350;2023-03-14T03:12:59;12.90;99.90
14670;DHT22;7423;48.722;9.350;2023-03-14T03:15:27;13.00;99.90
14670;DHT22;7423;48.722;9.350;2023-03-14T03:17:54;12.90;99.90
14670;DHT22;7423;48.722;9.350;2023-03-14T03:20:21;12.90;99.90
14670;DHT22;7423;48.722;9.350;2023-03-14T03:22:48;13.10;99.90
14670;DHT22;7423;48.722;9.350;2023-03-14T03:25:16;13.20;99.90
14670;DHT22;7423;48.722;9.350;2023-03-14T03:27:43;13.30;99.90
14670;DHT22;7423;48.722;9.350;2023-03-14T03:30:10;13.30;99.90
14670;DHT22;7423;48.722;9.350;2023-03-14T03:32:37;13.00;99.90
14670;DHT22;7423;48.722;9.350;2023-03-14T03:35:05;13.00;99.90
14670;DHT22;7423;48.722;9.350;2023-03-14T03:37:32;12.80;99.90
14670;DHT22;7423;48.722;9.350;2023-03-14T03:40:00;12.80;99.90
14670;DHT22;7423;48.722;9.350;2023-03-14T03:42:27;13.00;99.90
14670;DHT22;7423;48.722;9.350;2023-03-14T03:44:54;13.10;99.90
14670;DHT22;7423;48.722;9.350;2023-03-14T03:47:21;12.80;99.90
14670;DHT22;7423;48.722;9.350;2023-03-14T03:49:48;12.90;99.90
14670;DHT22;7423;48.722;9.350;2023-03-14T03:52:15;12.90;99.90
14670;DHT22;7423;48.722;9.350;2023-03-14T03:54:42;13.00;99.90
14670;DHT22;7423;48.722;9.350;2023-03-14T03:57:08;13.10;99.90
14670;DHT22;7423;48.722;9.350;2023-03-14T03:59:35;13.10;99.90
14670;DHT22;7423;48.722;9.350;2023-03-14T04:02:02;13.20;99.90
14670;DHT22;7423;48.722;9.350;2023-03-14T04:04:29;13.20;99.90
14670;DHT22;7423;48.722;9.350;2023-03-14T04:06:56;13.20;99.90
14670;DHT22;7423;48.722;9.350;2023-03-14T04:09:23;13.20;99.90
14670;DHT22;7423;48.722;9.350;2023-03-14T04:11:50;13.30;99.90
14670;DHT22;7423;48.722;9.350;2023-03-14T04:14:17;13.30;99.90
14670;DHT22;7423;48.722;9.350;2023-03-14T04:16:44;13.20;99.90
14670;DHT22;7423;48.722;9.350;2023-03-14T04:19:11;13.30;99.90
14670;DHT22;7423;48.722;9.350;2023-03-14T04:21:38;13.30;99.90
14670;DHT22;7423;48.722;9.350;2023-03-14T04:24:08;13.20;99.90
14670;DHT22;7423;48.722;9.350;2023-03-14T04:26:34;13.20;99.90
14670;DHT22;7423;48.722;9.350;2023-03-14T04:29:02;13.20;99.90
14670;DHT22;7423;48.722;9.350;2023-03-14T04:31:29;13.20;99.90
14670;DHT22;7423;48.722;9.350;2023-03-14T04:33:56;13.20;99.90
14670;DHT22;7423;48.722;9.350;2023-03-14T04:36:22;13.30;99.90
14670;DHT22;7423;48.722;9.350;2023-03-14T04:38:49;13.30;99.90
14670;DHT22;7423;48.722;9.350;2023-03-14T04:41:16;13.20;99.90
14670;DHT22;7423;48.722;9.350;2023-03-14T04:43:43;13.10;99.90
14670;DHT22;7423;48.722;9.350;2023-03-14T04:46:10;13.10;99.90
14670;DHT22;7423;48.722;9.350;2023-03-14T04:48:37;13.20;99.90
14670;DHT22;7423;48.722;9.350;2023-03-14T04:51:05;13.10;99.90
14670;DHT22;7423;48.722;9.350;2023-03-14T04:53:32;13.10;99.90
14670;DHT22;7423;48.722;9.350;2023-03-14T04:55:59;13.10;99.90
14670;DHT22;7423;48.722;9.350;2023-03-14T04:58:25;13.10;99.90
14670;DHT22;7423;48.722;9.350;2023-03-14T05:00:52;13.00;99.90
14670;DHT22;7423;48.722;9.350;2023-03-14T05:03:19;13.00;99.90
14670;DHT22;7423;48.722;9.350;2023-03-14T05:05:46;13.00;99.90
14670;DHT22;7423;48.722;9.350;2023-03-14T05:08:13;12.90;99.90
14670;DHT22;7423;48.722;9.350;2023-03-14T05:10:40;12.90;99.90
14670;DHT22;7423;48.722;9.350;2023-03-14T05:13:07;13.00;99.90
14670;DHT22;7423;48.722;9.350;2023-03-14T05:15:34;12.90;99.90
14670;DHT22;7423;48.722;9.350;2023-03-14T05:18:01;12.90;99.90
14670;DHT22;7423;48.722;9.350;2023-03-14T05:20:28;13.00;99.90
14670;DHT22;7423;48.722;9.350;2023-03-14T05:22:55;13.10;99.90
14670;DHT22;7423;48.722;9.350;2023-03-14T05:25:22;13.10;99.90
14670;DHT22;7423;48.722;9.350;2023-03-14T05:27:48;13.10;99.90
14670;DHT22;7423;48.722;9.350;2023-03-14T05:30:15;13.00;99.90
14670;DHT22;7423;48.722;9.350;2023-03-14T05:32:42;13.00;99.90
14670;DHT22;7423;48.722;9.350;2023-03-14T05:35:09;13.00;99.90
14670;DHT22;7423;48.722;9.350;2023-03-14T05:37:36;12.80;99.90
14670;DHT22;7423;48.722;9.350;2023-03-14T05:40:04;12.80;99.90
14670;DHT22;7423;48.722;9.350;2023-03-14T05:42:33;12.90;99.90
14670;DHT22;7423;48.722;9.350;2023-03-14T05:44:59;12.90;99.90
14670;DHT22;7423;48.722;9.350;2023-03-14T05:47:27;13.00;99.90
14670;DHT22;7423;48.722;9.350;2023-03-14T05:49:54;12.90;99.90
14670;DHT22;7423;48.722;9.350;2023-03-14T05:52:21;12.90;99.90
14670;DHT22;7423;48.722;9.350;2023-03-14T05:54:48;12.90;99.90
14670;DHT22;7423;48.722;9.350;2023-03-14T05:57:15;12.90;99.90
14670;DHT22;7423;48.722;9.350;2023-03-14T05:59:42;12.90;99.90
14670;DHT22;7423;48.722;9.350;2023-03-14T06:02:09;12.80;99.90
14670;DHT22;7423;48.722;9.350;2023-03-14T06:04:36;12.90;99.90
14670;DHT22;7423;48.722;9.350;2023-03-14T06:07:03;12.90;99.90
14670;DHT22;7423;48.722;9.350;2023-03-14T06:09:30;12.90;99.90
14670;DHT22;7423;48.722;9.350;2023-03-14T06:11:56;12.90;99.90
14670;DHT22;7423;48.722;9.350;2023-03-14T06:14:23;13.00;99.90
14670;DHT22;7423;48.722;9.350;2023-03-14T06:16:50;12.90;99.90
14670;DHT22;7423;48.722;9.350;2023-03-14T06:19:17;12.90;99.90
14670;DHT22;7423;48.722;9.350;2023-03-14T06:21:44;12.90;99.90
14670;DHT22;7423;48.722;9.350;2023-03-14T06:24:11;12.90;99.90
14670;DHT22;7423;48.722;9.350;2023-03-14T06:26:38;12.80;99.90
14670;DHT22;7423;48.722;9.350;2023-03-14T06:29:05;12.80;99.90
14670;DHT22;7423;48.722;9.350;2023-03-14T06:31:32;12.80;99.90
14670;DHT22;7423;48.722;9.350;2023-03-14T06:34:00;12.80;99.90
14670;DHT22;7423;48.722;9.350;2023-03-14T06:36:26;12.70;99.90
14670;DHT22;7423;48.722;9.350;2023-03-14T06:38:53;12.80;99.90
14670;DHT22;7423;48.722;9.350;2023-03-14T06:41:20;12.80;99.90
14670;DHT22;7423;48.722;9.350;2023-03-14T06:43:50;12.80;99.90
14670;DHT22;7423;48.722;9.350;2023-03-14T06:46:17;12.80;99.90
14670;DHT22;7423;48.722;9.350;2023-03-14T06:48:43;12.80;99.90
14670;DHT22;7423;48.722;9.350;2023-03-14T06:51:10;12.90;99.90
14670;DHT22;7423;48.722;9.350;2023-03-14T06:53:37;12.80;99.90
14670;DHT22;7423;48.722;9.350;2023-03-14T06:56:05;12.70;99.90
14670;DHT22;7423;48.722;9.350;2023-03-14T06:58:32;12.80;99.90
14670;DHT22;7423;48.722;9.350;2023-03-14T07:00:59;12.70;99.90
14670;DHT22;7423;48.722;9.350;2023-03-14T07:03:26;12.50;99.90
14670;DHT22;7423;48.722;9.350;2023-03-14T07:05:53;12.50;99.90
14670;DHT22;7423;48.722;9.350;2023-03-14T07:08:20;12.70;99.90
14670;DHT22;7423;48.722;9.350;2023-03-14T07:10:47;12.70;99.90
14670;DHT22;7423;48.722;9.350;2023-03-14T07:13:14;12.80;99.90
14670;DHT22;7423;48.722;9.350;2023-03-14T07:15:41;12.70;99.90
14670;DHT22;7423;48.722;9.350;2023-03-14T07:18:08;12.80;99.90
14670;DHT22;7423;48.722;9.350;2023-03-14T07:20:34;12.90;99.90
14670;DHT22;7423;48.722;9.350;2023-03-14T07:23:01;13.00;99.90
14670;DHT22;7423;48.722;9.350;2023-03-14T07:25:29;13.10;99.90
14670;DHT22;7423;48.722;9.350;2023-03-14T07:27:56;13.20;99.90
14670;DHT22;7423;48.722;9.350;2023-03-14T07:30:23;13.10;99.90
14670;DHT22;7423;48.722;9.350;2023-03-14T07:32:50;13.10;99.90
14670;DHT22;7423;48.722;9.350;2023-03-14T07:35:18;13.10;99.90
14670;DHT22;7423;48.722;9.350;2023-03-14T07:37:45;13.10;99.90
14670;DHT22;7423;48.722;9.350;2023-03-14T07:40:12;12.90;99.90
14670;DHT22;7423;48.722;9.350;2023-03-14T07:42:42;13.00;99.90
14670;DHT22;7423;48.722;9.350;2023-03-14T07:45:10;13.20;99.90
14670;DHT22;7423;48.722;9.350;2023-03-14T07:47:38;13.10;99.90
14670;DHT22;7423;48.722;9.350;2023-03-14T07:50:05;12.90;99.90
14670;DHT22;7423;48.722;9.350;2023-03-14T07:52:32;13.10;99.90
14670;DHT22;7423;48.722;9.350;2023-03-14T07:54:59;12.90;99.90
14670;DHT22;7423;48.722;9.350;2023-03-14T07:57:26;13.00;99.90
14670;DHT22;7423;48.722;9.350;2023-03-14T07:59:53;13.20;99.90
14670;DHT22;7423;48.722;9.350;2023-03-14T08:02:20;12.90;99.90
14670;DHT22;7423;48.722;9.350;2023-03-14T08:04:49;13.10;99.90
14670;DHT22;7423;48.722;9.350;2023-03-14T08:07:16;13.20;99.90
14670;DHT22;7423;48.722;9.350;2023-03-14T08:09:43;13.40;99.90
14670;DHT22;7423;48.722;9.350;2023-03-14T08:12:10;13.30;99.90
14670;DHT22;7423;48.722;9.350;2023-03-14T08:14:37;13.30;99.90
14670;DHT22;7423;48.722;9.350;2023-03-14T08:17:04;13.30;99.90
14670;DHT22;7423;48.722;9.350;2023-03-14T08:19:32;13.30;99.90
14670;DHT22;7423;48.722;9.350;2023-03-14T08:22:00;13.40;99.90
14670;DHT22;7423;48.722;9.350;2023-03-14T08:24:26;13.30;99.90
14670;DHT22;7423;48.722;9.350;2023-03-14T08:26:53;13.50;99.90
14670;DHT22;7423;48.722;9.350;2023-03-14T08:29:20;13.60;99.90
14670;DHT22;7423;48.722;9.350;2023-03-14T08:31:47;13.60;99.90
14670;DHT22;7423;48.722;9.350;2023-03-14T08:34:15;13.70;99.90
14670;DHT22;7423;48.722;9.350;2023-03-14T08:36:43;13.60;99.90
14670;DHT22;7423;48.722;9.350;2023-03-14T08:39:10;13.60;99.90
14670;DHT22;7423;48.722;9.350;2023-03-14T08:41:36;13.70;99.90
14670;DHT22;7423;48.722;9.350;2023-03-14T08:44:08;13.70;99.90
14670;DHT22;7423;48.722;9.350;2023-03-14T08:46:35;13.60;99.90
14670;DHT22;7423;48.722;9.350;2023-03-14T08:49:03;13.40;99.90
14670;DHT22;7423;48.722;9.350;2023-03-14T08:51:30;13.30;99.90
14670;DHT22;7423;48.722;9.350;2023-03-14T08:53:56;14.60;99.90
14670;DHT22;7423;48.722;9.350;2023-03-14T08:56:23;13.50;99.90
14670;DHT22;7423;48.722;9.350;2023-03-14T08:58:51;13.60;99.90
14670;DHT22;7423;48.722;9.350;2023-03-14T09:01:18;13.70;99.90
14670;DHT22;7423;48.722;9.350;2023-03-14T09:03:46;13.80;99.90
14670;DHT22;7423;48.722;9.350;2023-03-14T09:06:14;13.90;99.90
14670;DHT22;7423;48.722;9.350;2023-03-14T09:08:44;14.10;99.90
14670;DHT22;7423;48.722;9.350;2023-03-14T09:11:12;14.00;99.90
14670;DHT22;7423;48.722;9.350;2023-03-14T09:13:39;13.90;99.90
14670;DHT22;7423;48.722;9.350;2023-03-14T09:16:07;13.80;99.90
14670;DHT22;7423;48.722;9.350;2023-03-14T09:18:36;13.90;99.90
14670;DHT22;7423;48.722;9.350;2023-03-14T09:21:03;13.80;99.90
14670;DHT22;7423;48.722;9.350;2023-03-14T09:23:30;14.00;99.90
14670;DHT22;7423;48.722;9.350;2023-03-14T09:25:58;13.70;99.90
14670;DHT22;7423;48.722;9.350;2023-03-14T09:28:25;13.60;99.90
14670;DHT22;7423;48.722;9.350;2023-03-14T09:30:52;13.80;99.90
14670;DHT22;7423;48.722;9.350;2023-03-14T09:33:21;14.00;99.90
14670;DHT22;7423;48.722;9.350;2023-03-14T09:35:48;14.00;99.90
14670;DHT22;7423;48.722;9.350;2023-03-14T09:38:15;14.20;99.90
14670;DHT22;7423;48.722;9.350;2023-03-14T09:40:43;14.20;99.90
14670;DHT22;7423;48.722;9.350;2023-03-14T09:43:11;14.20;99.90
14670;DHT22;7423;48.722;9.350;2023-03-14T09:45:40;14.20;99.90
14670;DHT22;7423;48.722;9.350;2023-03-14T09:48:22;14.20;99.90
14670;DHT22;7423;48.722;9.350;2023-03-14T09:50:55;14.20;99.90
14670;DHT22;7423;48.722;9.350;2023-03-14T09:53:34;14.30;99.90
14670;DHT22;7423;48.722;9.350;2023-03-14T09:56:16;14.40;99.90
14670;DHT22;7423;48.722;9.350;2023-03-14T09:58:54;14.50;99.90
14670;DHT22;7423;48.722;9.350;2023-03-14T10:01:27;14.40;99.90
14670;DHT22;7423;48.722;9.350;2023-03-14T10:04:09;14.20;99.90
14670;DHT22;7423;48.722;9.350;2023-03-14T10:06:37;14.10;99.90
14670;DHT22;7423;48.722;9.350;2023-03-14T10:09:04;14.20;99.90
14670;DHT22;7423;48.722;9.350;2023-03-14T10:11:32;14.20;99.90
14670;DHT22;7423;48.722;9.350;2023-03-14T10:14:08;14.20;99.90
14670;DHT22;7423;48.722;9.350;2023-03-14T10:16:44;14.00;99.90
14670;DHT22;7423;48.722;9.350;2023-03-14T10:19:14;13.90;99.90
14670;DHT22;7423;48.722;9.350;2023-03-14T10:21:44;13.60;99.90
14670;DHT22;7423;48.722;9.350;2023-03-14T10:24:26;13.80;99.90
14670;DHT22;7423;48.722;9.350;2023-03-14T10:27:02;13.70;99.90
14670;DHT22;7423;48.722;9.350;2023-03-14T10:29:32;13.70;99.90
14670;DHT22;7423;48.722;9.350;2023-03-14T10:32:06;14.00;99.90
14670;DHT22;7423;48.722;9.350;2023-03-14T10:34:38;14.00;99.90
14670;DHT22;7423;48.722;9.350;2023-03-14T10:37:28;14.30;99.90
14670;DHT22;7423;48.722;9.350;2023-03-14T10:39:56;14.40;99.90
14670;DHT22;7423;48.722;9.350;2023-03-14T10:42:33;14.40;99.90
14670;DHT22;7423;48.722;9.350;2023-03-14T10:45:03;14.40;99.90
14670;DHT22;7423;48.722;9.350;2023-03-14T10:47:34;14.70;99.90
14670;DHT22;7423;48.722;9.350;2023-03-14T10:50:26;14.80;99.90
14670;DHT22;7423;48.722;9.350;2023-03-14T10:52:55;14.90;99.90
14670;DHT22;7423;48.722;9.350;2023-03-14T10:55:40;15.00;99.90
14670;DHT22;7423;48.722;9.350;2023-03-14T10:58:28;14.90;99.90
14670;DHT22;7423;48.722;9.350;2023-03-14T11:04:08;14.60;99.90
14670;DHT22;7423;48.722;9.350;2023-03-14T11:07:08;14.50;99.90
14670;DHT22;7423;48.722;9.350;2023-03-14T11:22:37;14.50;99.90
14670;DHT22;7423;48.722;9.350;2023-03-14T11:28:17;14.50;99.90
14670;DHT22;7423;48.722;9.350;2023-03-14T11:34:16;14.40;99.90
14670;DHT22;7423;48.722;9.350;2023-03-14T11:36:51;14.40;99.90
14670;DHT22;7423;48.722;9.350;2023-03-14T11:39:20;14.20;99.90
14670;DHT22;7423;48.722;9.350;2023-03-14T11:41:51;14.30;99.90
14670;DHT22;7423;48.722;9.350;2023-03-14T11:44:23;14.30;99.90
14670;DHT22;7423;48.722;9.350;2023-03-14T11:47:00;14.30;99.90
14670;DHT22;7423;48.722;9.350;2023-03-14T11:50:00;14.30;99.90
14670;DHT22;7423;48.722;9.350;2023-03-14T11:52:41;14.30;99.90
14670;DHT22;7423;48.722;9.350;2023-03-14T11:55:21;14.10;99.90
14670;DHT22;7423;48.722;9.350;2023-03-14T11:58:15;14.00;99.90
14670;DHT22;7423;48.722;9.350;2023-03-14T12:00:44;13.90;99.90
14670;DHT22;7423;48.722;9.350;2023-03-14T12:03:44;13.90;99.90
14670;DHT22;7423;48.722;9.350;2023-03-14T12:09:21;13.90;99.90
14670;DHT22;7423;48.722;9.350;2023-03-14T12:11:58;13.80;99.90
14670;DHT22;7423;48.722;9.350;2023-03-14T12:14:29;13.90;99.90
14670;DHT22;7423;48.722;9.350;2023-03-14T12:17:18;13.80;99.90
14670;DHT22;7423;48.722;9.350;2023-03-14T12:19:59;14.00;99.90
14670;DHT22;7423;48.722;9.350;2023-03-14T12:22:45;14.00;99.90
14670;DHT22;7423;48.722;9.350;2023-03-14T12:25:16;14.10;99.90
14670;DHT22;7423;48.722;9.350;2023-03-14T12:30:37;14.00;99.90
14670;DHT22;7423;48.722;9.350;2023-03-14T12:35:48;13.80;99.90
14670;DHT22;7423;48.722;9.350;2023-03-14T12:38:46;13.60;99.90
14670;DHT22;7423;48.722;9.350;2023-03-14T12:41:26;13.50;99.90
14670;DHT22;7423;48.722;9.350;2023-03-14T12:49:48;13.50;99.90
14670;DHT22;7423;48.722;9.350;2023-03-14T12:52:22;13.50;99.90
14670;DHT22;7423;48.722;9.350;2023-03-14T12:55:10;13.40;99.90
14670;DHT22;7423;48.722;9.350;2023-03-14T12:57:59;13.10;99.90
14670;DHT22;7423;48.722;9.350;2023-03-14T13:00:40;13.10;99.90
14670;DHT22;7423;48.722;9.350;2023-03-14T13:03:42;13.10;99.90
14670;DHT22;7423;48.722;9.350;2023-03-14T13:06:46;13.20;99.90
14670;DHT22;7423;48.722;9.350;2023-03-14T13:12:03;13.20;99.90
14670;DHT22;7423;48.722;9.350;2023-03-14T13:14:40;13.20;99.90
14670;DHT22;7423;48.722;9.350;2023-03-14T13:17:12;13.20;99.90
14670;DHT22;7423;48.722;9.350;2023-03-14T13:20:36;13.30;99.90
14670;DHT22;7423;48.722;9.350;2023-03-14T13:23:03;13.20;99.90
14670;DHT22;7423;48.722;9.350;2023-03-14T13:25:35;13.30;99.90
14670;DHT22;7423;48.722;9.350;2023-03-14T13:28:03;13.20;99.90
14670;DHT22;7423;48.722;9.350;2023-03-14T13:30:41;13.10;99.90
14670;DHT22;7423;48.722;9.350;2023-03-14T13:33:18;12.90;99.90
14670;DHT22;7423;48.722;9.350;2023-03-14T13:36:08;12.90;99.90
14670;DHT22;7423;48.722;9.350;2023-03-14T13:38:36;12.80;99.90
14670;DHT22;7423;48.722;9.350;2023-03-14T13:41:07;12.80;99.90
14670;DHT22;7423;48.722;9.350;2023-03-14T13:43:41;12.80;99.90
14670;DHT22;7423;48.722;9.350;2023-03-14T13:46:16;12.80;99.90
14670;DHT22;7423;48.722;9.350;2023-03-14T13:48:53;12.70;99.90
14670;DHT22;7423;48.722;9.350;2023-03-14T13:51:23;12.50;99.90
14670;DHT22;7423;48.722;9.350;2023-03-14T13:53:53;12.30;99.90
14670;DHT22;7423;48.722;9.350;2023-03-14T13:56:23;12.30;99.90
14670;DHT22;7423;48.722;9.350;2023-03-14T13:58:55;12.30;99.90
14670;DHT22;7423;48.722;9.350;2023-03-14T14:01:34;12.30;99.90
14670;DHT22;7423;48.722;9.350;2023-03-14T14:04:13;12.50;99.90
14670;DHT22;7423;48.722;9.350;2023-03-14T14:06:47;12.50;99.90
14670;DHT22;7423;48.722;9.350;2023-03-14T14:09:20;12.40;99.90
14670;DHT22;7423;48.722;9.350;2023-03-14T14:17:26;12.50;99.90
14670;DHT22;7423;48.722;9.350;2023-03-14T14:20:05;12.40;99.90
14670;DHT22;7423;48.722;9.350;2023-03-14T14:22:35;12.50;99.90
14670;DHT22;7423;48.722;9.350;2023-03-14T14:25:03;12.40;99.70
14670;DHT22;7423;48.722;9.350;2023-03-14T14:27:38;12.10;99.50
14670;DHT22;7423;48.722;9.350;2023-03-14T14:32:49;11.90;99.10
14670;DHT22;7423;48.722;9.350;2023-03-14T14:35:30;11.70;98.20
14670;DHT22;7423;48.722;9.350;2023-03-14T14:37:58;11.60;98.20
14670;DHT22;7423;48.722;9.350;2023-03-14T14:40:28;11.50;98.40
14670;DHT22;7423;48.722;9.350;2023-03-14T14:43:03;11.50;99.10
14670;DHT22;7423;48.722;9.350;2023-03-14T14:45:34;11.50;98.80
14670;DHT22;7423;48.722;9.350;2023-03-14T14:53:20;11.70;99.10
14670;DHT22;7423;48.722;9.350;2023-03-14T14:56:06;11.50;99.50
14670;DHT22;7423;48.722;9.350;2023-03-14T14:58:49;11.50;99.90
14670;DHT22;7423;48.722;9.350;2023-03-14T15:01:22;11.70;99.80
14670;DHT22;7423;48.722;9.350;2023-03-14T15:03:51;11.50;99.00
14670;DHT22;7423;48.722;9.350;2023-03-14T15:06:19;11.60;99.40
14670;DHT22;7423;48.722;9.350;2023-03-14T15:08:47;11.60;99.10
14670;DHT22;7423;48.722;9.350;2023-03-14T15:11:23;11.60;99.40
14670;DHT22;7423;48.722;9.350;2023-03-14T15:13:52;11.70;99.80
14670;DHT22;7423;48.722;9.350;2023-03-14T15:16:22;11.80;99.90
14670;DHT22;7423;48.722;9.350;2023-03-14T15:18:57;11.90;99.10
14670;DHT22;7423;48.722;9.350;2023-03-14T15:21:27;11.80;99.80
14670;DHT22;7423;48.722;9.350;2023-03-14T15:23:54;11.70;99.40
14670;DHT22;7423;48.722;9.350;2023-03-14T15:26:25;11.70;99.90
14670;DHT22;7423;48.722;9.350;2023-03-14T15:28:53;11.80;99.70
14670;DHT22;7423;48.722;9.350;2023-03-14T15:31:20;11.90;99.90
14670;DHT22;7423;48.722;9.350;2023-03-14T15:33:48;12.10;99.80
14670;DHT22;7423;48.722;9.350;2023-03-14T15:36:26;12.20;99.10
14670;DHT22;7423;48.722;9.350;2023-03-14T15:38:55;12.30;99.60
14670;DHT22;7423;48.722;9.350;2023-03-14T15:41:23;12.40;99.30
14670;DHT22;7423;48.722;9.350;2023-03-14T15:43:50;12.40;99.10
14670;DHT22;7423;48.722;9.350;2023-03-14T15:46:18;12.30;98.90
14670;DHT22;7423;48.722;9.350;2023-03-14T15:48:45;12.30;98.40
14670;DHT22;7423;48.722;9.350;2023-03-14T15:51:13;12.30;98.90
14670;DHT22;7423;48.722;9.350;2023-03-14T15:53:40;12.40;98.70
14670;DHT22;7423;48.722;9.350;2023-03-14T15:56:17;12.30;98.90
14670;DHT22;7423;48.722;9.350;2023-03-14T15:58:50;12.30;98.90
14670;DHT22;7423;48.722;9.350;2023-03-14T16:01:17;12.20;98.90
14670;DHT22;7423;48.722;9.350;2023-03-14T16:03:45;12.30;98.80
14670;DHT22;7423;48.722;9.350;2023-03-14T16:06:13;12.30;99.10
14670;DHT22;7423;48.722;9.350;2023-03-14T16:08:41;12.30;98.80
14670;DHT22;7423;48.722;9.350;2023-03-14T16:11:12;12.10;99.10
14670;DHT22;7423;48.722;9.350;2023-03-14T16:13:41;12.20;99.50
14670;DHT22;7423;48.722;9.350;2023-03-14T16:16:08;12.00;99.00
14670;DHT22;7423;48.722;9.350;2023-03-14T16:18:37;12.10;99.10
14670;DHT22;7423;48.722;9.350;2023-03-14T16:21:07;12.10;99.80
14670;DHT22;7423;48.722;9.350;2023-03-14T16:23:38;12.10;99.40
14670;DHT22;7423;48.722;9.350;2023-03-14T16:26:08;12.00;99.30
14670;DHT22;7423;48.722;9.350;2023-03-14T16:28:37;11.90;99.50
14670;DHT22;7423;48.722;9.350;2023-03-14T16:31:06;12.10;99.90
14670;DHT22;7423;48.722;9.350;2023-03-14T16:33:36;12.00;99.70
14670;DHT22;7423;48.722;9.350;2023-03-14T16:36:06;11.90;99.60
14670;DHT22;7423;48.722;9.350;2023-03-14T16:38:39;11.90;99.90
14670;DHT22;7423;48.722;9.350;2023-03-14T16:41:14;12.00;99.90
14670;DHT22;7423;48.722;9.350;2023-03-14T16:43:43;12.00;99.90
14670;DHT22;7423;48.722;9.350;2023-03-14T16:46:15;12.10;99.90
14670;DHT22;7423;48.722;9.350;2023-03-14T16:48:43;12.20;99.90
14670;DHT22;7423;48.722;9.350;2023-03-14T16:51:11;12.30;99.90
14670;DHT22;7423;48.722;9.350;2023-03-14T16:53:39;12.30;99.90
14670;DHT22;7423;48.722;9.350;2023-03-14T16:56:06;12.00;99.60
14670;DHT22;7423;48.722;9.350;2023-03-14T16:58:34;12.00;99.90
14670;DHT22;7423;48.722;9.350;2023-03-14T17:01:10;12.10;99.90
14670;DHT22;7423;48.722;9.350;2023-03-14T17:03:48;12.10;99.90
14670;DHT22;7423;48.722;9.350;2023-03-14T17:06:18;12.10;99.30
14670;DHT22;7423;48.722;9.350;2023-03-14T17:08:46;12.10;99.90
14670;DHT22;7423;48.722;9.350;2023-03-14T17:11:13;12.00;99.90
14670;DHT22;7423;48.722;9.350;2023-03-14T17:13:40;12.10;99.90
14670;DHT22;7423;48.722;9.350;2023-03-14T17:16:07;12.20;99.90